• Join FlightAware (Why Join?)
  • Login
  • US Flag 
01:28AM EDT


 

Airport Tracker/Info


-or-


 

Live Flight TrackerFlight Track Log ✈ ASQ4663 ✈ 21-May-2013 ✈ KEWR - KBNA

Flight Track Log - Related Links

Times and Time Zones

All times are in EDT time to prevent confusion due to time zone crossing. See the ASQ4663 flight status page for this flight to view local times or setup timezone preferences in your user account.

Time Position Orientation Groundspeed Altitude Reporting Facility
EDT Latitude Longitude Course Direction KTS MPH feet Rate Location/Type
07:53PM 40.6333 -74.1833 285° West 184 212 2,000  Level New York TRACON
07:54PM 40.6500 -74.2667 285° West 244 281 3,400 1,740 Climbing New York TRACON
07:55PM 40.6667 -74.3500 285° West 256 295 5,500 1,920 Climbing New York TRACON
07:58PM 40.7114 -74.5544 286° West 269 310 9,800 1,920 Climbing New York Center
07:59PM 40.7308 -74.6625 283° West 269 310 12,000 1,980 Climbing New York Center
08:00PM 40.7447 -74.7481 282° West 269 310 13,800 1,320 Climbing New York Center
08:01PM 40.7617 -74.8586 281° West 274 315 14,700 660 Climbing New York Center
08:02PM 40.7806 -74.9750 282° West 313 360 15,200 660 Climbing New York Center
08:03PM 40.7972 -75.0883 281° West 340 391 16,100 1,020 Climbing New York Center
08:04PM 40.7878 -75.2303 265° West 351 404 17,300 1,080 Climbing New York Center
08:05PM 40.7706 -75.3581 260° West 356 410 18,400 960 Climbing New York Center
08:06PM 40.7347 -75.4706 247° West 356 410 19,200 900 Climbing New York Center
08:07PM 40.6883 -75.5906 243° Southwest 369 425 20,200 960 Climbing New York Center
08:08PM 40.6436 -75.7106 244° Southwest 374 430 21,200 960 Climbing New York Center
08:09PM 40.5969 -75.8328 243° Southwest 379 436 22,200 1,080 Climbing New York Center
08:10PM 40.5428 -75.9708 243° Southwest 385 443 23,400 1,080 Climbing New York Center
08:11PM 40.4956 -76.0956 244° Southwest 385 443 24,400 900 Climbing New York Center
08:12PM 40.4533 -76.2042 243° Southwest 385 443 25,300 900 Climbing New York Center
08:13PM 40.4117 -76.3344 247° West 385 443 26,300 960 Climbing New York Center
08:14PM 40.3786 -76.4628 251° West 380 437 27,300 960 Climbing New York Center
08:15PM 40.3431 -76.5906 250° West 380 437 28,300 960 Climbing New York Center
08:16PM 40.3075 -76.7208 250° West 380 437 29,300 960 Climbing New York Center
08:17PM 40.2736 -76.8542 252° West 380 437 30,300 1,020 Climbing New York Center
08:18PM 40.2397 -76.9817 251° West 380 437 31,300 1,020 Climbing New York Center
08:20PM 40.1872 -77.2536 256° West 368 423 33,400 900 Climbing Cleveland Center
08:21PM 40.1850 -77.3869 269° West 373 429 34,000 300 Climbing Cleveland Center
08:22PM 40.1806 -77.5314 268° West 384 442 34,000  Level Cleveland Center
08:23PM 40.1764 -77.6892 268° West 407 468 34,000  Level Cleveland Center
08:24PM 40.1614 -77.8392 263° West 426 490 34,000  Level Cleveland Center
08:25PM 40.1233 -77.9983 253° West 438 504 34,000  Level Cleveland Center
08:26PM 40.0892 -78.1489 254° West 438 504 34,000  Level Cleveland Center
08:27PM 40.0528 -78.3019 253° West 438 504 34,000  Level Cleveland Center
08:28PM 40.0181 -78.4522 253° West 443 510 34,000  Level Cleveland Center
08:29PM 39.9853 -78.5997 254° West 443 510 34,000  Level Cleveland Center
08:30PM 39.9481 -78.7497 252° West 443 510 34,000  Level Cleveland Center
08:31PM 39.9131 -78.8994 253° West 443 510 34,000  Level Cleveland Center
08:32PM 39.8856 -79.0300 255° West 443 510 34,000  Level Cleveland Center
08:33PM 39.8500 -79.1769 253° West 438 504 34,000  Level Cleveland Center
08:34PM 39.8164 -79.3264 254° West 438 504 34,000  Level Cleveland Center
08:35PM 39.7803 -79.4700 252° West 433 498 34,000  Level Cleveland Center
08:36PM 39.7442 -79.6192 253° West 433 498 34,000  Level Cleveland Center
08:37PM 39.7078 -79.7628 252° West 433 498 34,000  Level Cleveland Center
08:38PM 39.6733 -79.9114 253° West 433 498 34,000  Level Cleveland Center
08:39PM 39.6344 -80.0575 251° West 433 498 34,000  Level Cleveland Center
08:40PM 39.5914 -80.2006 249° West 433 498 34,000  Level Cleveland Center
08:41PM 39.5067 -80.3489 234° Southwest 433 498 34,000  Level Indianapolis Center
08:42PM 39.4411 -80.4794 237° Southwest 433 498 34,000  Level Indianapolis Center
08:43PM 39.3858 -80.6158 242° Southwest 429 494 34,000  Level Indianapolis Center
08:44PM 39.3297 -80.7492 241° Southwest 429 494 34,000  Level Indianapolis Center
08:45PM 39.2733 -80.8856 242° Southwest 427 491 34,000  Level Indianapolis Center
08:46PM 39.2414 -81.0311 254° West 424 488 34,000  Level Indianapolis Center
08:47PM 39.2175 -81.2072 260° West 421 484 34,000  Level Indianapolis Center
08:48PM 39.1992 -81.3539 261° West 419 482 34,000  Level Indianapolis Center
08:49PM 39.1792 -81.4997 260° West 416 479 34,000  Level Indianapolis Center
08:50PM 39.1650 -81.6453 263° West 415 478 34,000  Level Indianapolis Center
08:51PM 39.1561 -81.7917 266° West 412 474 34,000  Level Indianapolis Center
08:52PM 39.1461 -81.9381 265° West 412 474 34,000  Level Indianapolis Center
08:53PM 39.1356 -82.1144 266° West 412 474 34,000  Level Indianapolis Center
08:54PM 39.0836 -82.2414 242° Southwest 405 466 34,000  Level Indianapolis Center
08:55PM 39.0164 -82.3622 234° Southwest 414 476 34,000  Level Indianapolis Center
08:56PM 38.9489 -82.4842 235° Southwest 418 481 34,100 900 Climbing Indianapolis Center
08:57PM 38.8836 -82.6019 235° Southwest 410 472 35,900 900 Climbing Indianapolis Center
08:58PM 38.8219 -82.7136 235° Southwest 389 448 36,000  Climbing Indianapolis Center
08:59PM 38.7578 -82.8317 235° Southwest 399 459 36,000  Level Indianapolis Center
09:00PM 38.6889 -82.9528 234° Southwest 416 479 36,000  Level Indianapolis Center
09:01PM 38.6122 -83.0897 234° Southwest 409 471 36,000  Level Indianapolis Center
09:02PM 38.5439 -83.2103 234° Southwest 416 479 36,000  Level Indianapolis Center
09:03PM 38.4742 -83.3333 234° Southwest 425 489 36,000  Level Indianapolis Center
09:04PM 38.4053 -83.4553 234° Southwest 426 490 36,000  Level Indianapolis Center
09:05PM 38.3256 -83.5956 234° Southwest 421 484 36,000 -720 Level Indianapolis Center
09:06PM 38.2578 -83.7142 234° Southwest 416 479 34,600 -1,440 Descending Indianapolis Center
09:07PM 38.1917 -83.8300 234° Southwest 408 470 33,100 -1,560 Descending Indianapolis Center
09:08PM 38.1206 -83.9514 233° Southwest 425 489 31,500 -1,080 Descending Indianapolis Center
09:09PM 38.0519 -84.0722 234° Southwest 423 487 31,000 -300 Descending Indianapolis Center
09:10PM 37.9819 -84.1928 234° Southwest 425 489 31,000  Level Indianapolis Center
09:11PM 37.9114 -84.3128 233° Southwest 427 491 31,000  Level Indianapolis Center
09:12PM 37.8411 -84.4342 234° Southwest 427 491 31,000  Level Indianapolis Center
09:13PM 37.7572 -84.5772 233° Southwest 432 497 31,000 -300 Level Indianapolis Center
09:14PM 37.6864 -84.6958 233° Southwest 427 491 30,400 -1,020 Descending Indianapolis Center
09:15PM 37.6172 -84.8153 234° Southwest 424 488 29,000 -1,200 Descending Indianapolis Center
09:16PM 37.5436 -84.9375 233° Southwest 436 502 28,000 -540 Descending Indianapolis Center
09:18PM 37.4728 -85.0556 233° Southwest 424 488 28,000 -420 Level Indianapolis Center
09:19PM 37.4019 -85.1753 233° Southwest 426 490 27,200 -1,260 Descending Indianapolis Center
09:20PM 37.3283 -85.2978 233° Southwest 437 503 25,500 -1,680 Descending Indianapolis Center
09:21PM 37.2436 -85.4364 233° Southwest 431 496 23,800 -1,260 Descending Indianapolis Center
09:22PM 37.1767 -85.5511 234° Southwest 433 498 23,000 -540 Descending Indianapolis Center
09:23PM 37.1042 -85.6692 232° Southwest 427 491 22,800 -960 Descending Indianapolis Center
09:24PM 37.0047 -85.7442 211° Southwest 424 488 21,100 -1,620 Descending Indianapolis Center
09:25PM 36.8869 -85.7519 183° South 419 482 19,600 -1,380 Descending Indianapolis Center
09:26PM 36.7769 -85.7661 186° South 401 461 18,400 -1,200 Descending Indianapolis Center
09:27PM 36.6686 -85.7803 186° South 385 443 17,200 -1,320 Descending Indianapolis Center
09:28PM 36.5639 -85.8200 197° South 398 458 15,800 -1,620 Descending Indianapolis Center
09:29PM 36.5025 -85.9253 234° Southwest 372 428 14,000 -1,980 Descending Indianapolis Center
09:30PM 36.4508 -86.0319 239° Southwest 359 413 11,800 -1,620 Descending Indianapolis Center
09:31PM 36.4061 -86.1258 239° Southwest 316 364 10,700 -1,260 Descending Indianapolis Center
09:31PM 36.3883 -86.1808 248° West 301 346 9,800 -1,800 Descending Memphis Center
09:32PM 36.3639 -86.2619 250° West 265 305 7,800 -1,980 Descending Memphis Center
09:33PM 36.3397 -86.3481 251° West 260 299 5,900 -1,860 Descending Memphis Center
09:34PM 36.3136 -86.4397 251° West 260 299 4,100 -1,260 Descending Memphis Center
09:35PM 36.2911 -86.5206 251° West 260 299 3,400 -600 Descending Memphis Center
09:36PM 36.2706 -86.6011 252° West 254 292 3,000 -540 Descending Memphis Center
09:37PM 36.2281 -86.6444 219° Southwest 210 242 2,400 -720 Descending Memphis Center
09:38PM 36.1867 -86.6592 196° South 173 199 1,600 -780 Descending Memphis Center
09:39PM 36.1517 -86.6736 198° South 147 169 900 -720 Descending Memphis Center
09:41PM 36.1245 -86.6782 180° South  Level Estimated
09:48PM 36.1245 -86.6782 180° South  Level Estimated